Time;durP1;ratioP1;P1;durP2;ratioP2;P2;SDS_P1;SDS_P2;PMS_P1;PMS_P2;Temp;Humidity;BMP_temperature;BMP_pressure;BME280_temperature;BME280_humidity;BME280_pressure;Samples;Min_cycle;Max_cycle;Signal;HPM_P1;HPM_P2
2021/08/03 00:00:32;;;;;;;2.58;1.70;;;10.70;99.90;;;;;;5052537;28;20108;-37
2021/08/03 00:02:58;;;;;;;2.50;2.10;;;10.70;99.90;;;;;;5052356;28;20049;-38
2021/08/03 00:05:27;;;;;;;5.55;2.38;;;10.70;99.90;;;;;;5052401;28;20476;-37
2021/08/03 00:08:08;;;;;;;6.57;2.10;;;10.60;99.90;;;;;;5051531;28;20035;-37
2021/08/03 00:10:36;;;;;;;3.17;1.60;;;10.60;99.90;;;;;;5051135;28;20563;-37
2021/08/03 00:13:02;;;;;;;4.40;1.75;;;10.50;99.90;;;;;;5052350;28;20037;-38
2021/08/03 00:15:29;;;;;;;4.07;1.90;;;10.40;99.90;;;;;;5052420;28;20025;-38
2021/08/03 00:17:55;;;;;;;2.92;1.40;;;10.50;99.90;;;;;;5050149;28;20044;-37
2021/08/03 00:20:22;;;;;;;2.58;1.67;;;10.40;99.90;;;;;;5052175;28;20414;-37
2021/08/03 00:22:48;;;;;;;3.35;1.55;;;10.40;99.90;;;;;;5051468;28;20025;-38
2021/08/03 00:25:14;;;;;;;2.08;1.73;;;10.30;99.90;;;;;;5052158;28;20025;-38
2021/08/03 00:27:42;;;;;;;4.20;2.00;;;10.30;99.90;;;;;;5051921;28;20032;-37
2021/08/03 00:30:08;;;;;;;2.30;1.70;;;10.30;99.90;;;;;;5052287;28;20496;-38
2021/08/03 00:32:33;;;;;;;6.47;2.17;;;10.20;99.90;;;;;;5052065;28;20033;-37
2021/08/03 00:34:59;;;;;;;4.20;1.70;;;10.20;99.90;;;;;;5052006;28;20028;-38
2021/08/03 00:37:24;;;;;;;3.47;1.80;;;10.20;99.90;;;;;;5050304;28;20033;-38
2021/08/03 00:39:50;;;;;;;2.42;1.45;;;10.20;99.90;;;;;;5052050;28;20143;-37
2021/08/03 00:42:15;;;;;;;2.25;1.70;;;10.20;99.90;;;;;;5051856;28;20389;-37
2021/08/03 00:44:45;;;;;;;3.22;1.40;;;10.10;99.90;;;;;;5051779;28;20090;-38
2021/08/03 00:47:12;;;;;;;2.15;1.40;;;10.10;99.90;;;;;;5051835;28;20025;-38
2021/08/03 00:49:39;;;;;;;1.60;1.48;;;10.10;99.90;;;;;;5051680;28;20029;-38
2021/08/03 00:52:05;;;;;;;2.65;1.40;;;10.10;99.90;;;;;;5050694;28;20055;-38
2021/08/03 00:54:31;;;;;;;3.13;2.03;;;10.10;99.90;;;;;;5051711;28;20419;-37
2021/08/03 00:56:58;;;;;;;2.55;2.00;;;10.00;99.90;;;;;;5051786;28;20064;-37
2021/08/03 00:59:24;;;;;;;2.55;1.60;;;10.00;99.90;;;;;;5051640;28;20047;-38
2021/08/03 01:01:50;;;;;;;5.80;1.52;;;10.00;99.90;;;;;;5051637;28;20435;-37
2021/08/03 01:04:17;;;;;;;2.72;1.80;;;9.90;99.90;;;;;;5051355;28;20073;-37
2021/08/03 01:07:03;;;;;;;2.10;1.70;;;9.90;99.90;;;;;;5050545;28;20094;-38
2021/08/03 01:09:44;;;;;;;;;;;9.90;99.90;;;;;;5051859;28;20096;-37
2021/08/03 01:12:18;;;;;;;3.95;1.67;;;9.90;99.90;;;;;;5051385;28;19962;-40
2021/08/03 01:15:08;;;;;;;2.17;1.73;;;9.80;99.90;;;;;;5051442;28;20788;-38
2021/08/03 01:17:47;;;;;;;2.72;1.85;;;9.80;99.90;;;;;;5051323;28;20021;-38
2021/08/03 01:20:24;;;;;;;1.55;1.45;;;9.80;99.90;;;;;;5051299;28;20112;-38
2021/08/03 01:23:02;;;;;;;2.72;1.77;;;9.80;99.90;;;;;;5050400;28;20024;-37
2021/08/03 01:25:49;;;;;;;1.70;1.40;;;9.70;99.90;;;;;;5051124;28;20111;-37
2021/08/03 01:28:19;;;;;;;3.35;1.95;;;9.70;99.90;;;;;;5051092;28;20028;-37
2021/08/03 01:30:50;;;;;;;1.55;1.33;;;9.70;99.90;;;;;;5051075;28;20060;-37
2021/08/03 01:33:19;;;;;;;3.45;1.80;;;9.70;99.90;;;;;;5051147;28;20021;-37
2021/08/03 01:35:46;;;;;;;3.13;1.80;;;9.70;99.90;;;;;;5045592;28;20056;-38
2021/08/03 01:38:15;;;;;;;3.05;1.73;;;9.60;99.90;;;;;;5032764;28;20026;-37
2021/08/03 01:40:43;;;;;;;2.85;1.85;;;9.60;99.90;;;;;;5032708;28;20125;-37
2021/08/03 01:43:09;;;;;;;3.05;1.63;;;9.60;99.90;;;;;;5032758;28;20021;-37
2021/08/03 01:45:36;;;;;;;3.35;1.85;;;9.60;99.90;;;;;;5032611;28;20025;-37
2021/08/03 01:48:02;;;;;;;2.75;1.65;;;9.60;99.90;;;;;;5031802;28;20030;-38
2021/08/03 01:50:28;;;;;;;2.67;1.70;;;9.60;99.90;;;;;;5032477;28;20021;-38
2021/08/03 01:52:56;;;;;;;5.28;1.95;;;9.50;99.90;;;;;;5031597;28;20503;-37
2021/08/03 01:55:22;;;;;;;5.75;1.98;;;9.50;99.90;;;;;;5032138;28;20025;-37
2021/08/03 01:57:47;;;;;;;2.95;1.70;;;9.50;99.90;;;;;;5032382;28;20030;-38
2021/08/03 02:00:13;;;;;;;3.97;1.73;;;9.50;99.90;;;;;;5032441;28;20033;-38
2021/08/03 02:02:39;;;;;;;2.97;1.52;;;9.50;99.90;;;;;;5032331;28;20037;-37
2021/08/03 02:05:06;;;;;;;1.65;1.50;;;9.50;99.90;;;;;;5032143;28;20044;-37
2021/08/03 02:07:33;;;;;;;2.42;1.50;;;9.40;99.90;;;;;;5031498;28;20022;-37
2021/08/03 02:10:00;;;;;;;2.75;1.55;;;9.40;99.90;;;;;;5032517;28;20439;-37
2021/08/03 02:12:27;;;;;;;1.88;1.48;;;9.40;99.90;;;;;;5032297;28;20033;-37
2021/08/03 02:14:53;;;;;;;2.25;1.73;;;9.30;99.90;;;;;;5032292;28;20049;-37
2021/08/03 02:17:23;;;;;;;3.85;1.85;;;9.40;99.90;;;;;;5032378;28;20061;-38
2021/08/03 02:19:50;;;;;;;2.00;1.60;;;9.30;99.90;;;;;;5032241;28;20022;-37
2021/08/03 02:22:17;;;;;;;2.78;1.50;;;9.30;99.90;;;;;;5031268;28;20072;-37
2021/08/03 02:24:43;;;;;;;2.42;2.05;;;9.30;99.90;;;;;;5032381;28;20519;-37
2021/08/03 02:27:09;;;;;;;3.15;1.38;;;9.20;99.90;;;;;;5032342;28;20048;-37
2021/08/03 02:29:37;;;;;;;3.10;1.88;;;9.30;99.90;;;;;;5032218;28;20502;-37
2021/08/03 02:32:26;;;;;;;3.58;2.28;;;9.30;99.90;;;;;;5032238;28;20170;-38
2021/08/03 02:35:22;;;;;;;2.80;1.52;;;9.30;99.90;;;;;;5032329;28;20064;-38
2021/08/03 02:37:52;;;;;;;5.43;1.67;;;9.30;99.90;;;;;;5030956;28;20389;-38
2021/08/03 02:40:18;;;;;;;2.42;1.60;;;9.30;99.90;;;;;;5032230;28;20041;-37
2021/08/03 02:42:45;;;;;;;2.83;1.77;;;9.30;99.90;;;;;;5032017;28;20025;-37
2021/08/03 02:45:16;;;;;;;5.50;1.60;;;9.30;99.90;;;;;;5032230;28;20029;-38
2021/08/03 02:47:50;;;;;;;2.95;1.80;;;9.20;99.90;;;;;;5032130;28;20108;-37
2021/08/03 02:50:16;;;;;;;3.95;1.60;;;9.20;99.90;;;;;;5032172;28;20026;-37
2021/08/03 02:52:44;;;;;;;1.83;1.33;;;9.20;99.90;;;;;;5030997;28;20030;-37
2021/08/03 02:55:23;;;;;;;2.28;1.20;;;9.20;99.90;;;;;;5031889;28;20060;-37
2021/08/03 02:58:08;;;;;;;2.20;1.70;;;9.10;99.90;;;;;;5032016;28;20029;-37
2021/08/03 03:00:36;;;;;;;2.45;1.23;;;9.10;99.90;;;;;;5034587;28;20013;-37
2021/08/03 03:03:07;;;;;;;3.05;1.98;;;9.10;99.90;;;;;;5035732;28;20377;-37
2021/08/03 03:05:36;;;;;;;3.08;1.80;;;9.10;99.90;;;;;;5035583;28;20465;-37
2021/08/03 03:08:08;;;;;;;3.00;2.47;;;9.10;99.90;;;;;;5034485;28;20045;-37
2021/08/03 03:10:39;;;;;;;2.22;1.38;;;9.10;99.90;;;;;;5035286;28;20027;-37
2021/08/03 03:13:31;;;;;;;2.60;1.38;;;9.00;99.90;;;;;;5035367;28;20037;-37
2021/08/03 03:15:59;;;;;;;2.85;1.95;;;9.00;99.90;;;;;;5035240;28;20607;-37
2021/08/03 03:18:25;;;;;;;2.42;1.80;;;9.00;99.90;;;;;;5035181;28;20523;-37
2021/08/03 03:20:52;;;;;;;3.47;1.40;;;9.00;99.90;;;;;;5034245;28;20022;-37
2021/08/03 03:23:20;;;;;;;3.72;1.65;;;9.00;99.90;;;;;;5035277;28;20144;-37
2021/08/03 03:25:49;;;;;;;2.75;1.75;;;8.90;99.90;;;;;;5035046;28;20068;-39
2021/08/03 03:28:18;;;;;;;3.42;1.77;;;8.90;99.90;;;;;;5035118;28;20385;-38
2021/08/03 03:30:44;;;;;;;2.45;1.55;;;8.90;99.90;;;;;;5034769;28;20484;-38
2021/08/03 03:33:11;;;;;;;2.50;1.70;;;8.90;99.90;;;;;;5034980;28;20119;-37
2021/08/03 03:35:37;;;;;;;2.65;1.67;;;9.00;99.90;;;;;;5034882;28;20022;-37
2021/08/03 03:38:03;;;;;;;2.30;1.48;;;8.90;99.90;;;;;;5033969;28;20029;-37
2021/08/03 03:40:29;;;;;;;3.58;1.70;;;9.00;99.90;;;;;;5034785;28;20113;-37
2021/08/03 03:42:56;;;;;;;1.83;1.60;;;9.00;99.90;;;;;;5034817;28;20087;-37
2021/08/03 03:45:22;;;;;;;1.30;1.20;;;9.00;99.90;;;;;;5034532;28;20030;-37
2021/08/03 03:47:58;;;;;;;2.90;1.85;;;9.10;99.90;;;;;;5034612;28;20026;-38
2021/08/03 03:50:33;;;;;;;2.58;1.45;;;9.20;99.90;;;;;;5034748;28;20036;-38
2021/08/03 03:53:15;;;;;;;2.42;1.92;;;9.20;99.90;;;;;;5033691;28;20041;-38
2021/08/03 03:55:51;;;;;;;3.70;2.10;;;9.30;99.90;;;;;;5034419;28;20473;-37
2021/08/03 03:58:18;;;;;;;5.45;1.73;;;9.40;99.90;;;;;;5034666;28;20046;-37
2021/08/03 04:00:44;;;;;;;2.90;1.52;;;9.60;99.90;;;;;;5034449;28;20034;-37
2021/08/03 04:03:11;;;;;;;3.17;1.63;;;9.70;99.90;;;;;;5034386;28;20513;-37
2021/08/03 04:05:40;;;;;;;2.45;1.50;;;9.80;99.90;;;;;;5034263;28;20467;-37
2021/08/03 04:08:08;;;;;;;3.47;1.80;;;10.00;99.90;;;;;;5033959;28;20024;-37
2021/08/03 04:10:35;;;;;;;2.30;1.60;;;10.10;99.90;;;;;;5033571;28;20432;-37
2021/08/03 04:13:02;;;;;;;2.90;1.70;;;10.30;99.90;;;;;;5034108;28;20029;-38
2021/08/03 04:15:28;;;;;;;3.28;1.80;;;10.50;99.90;;;;;;5034248;28;20115;-37
2021/08/03 04:17:55;;;;;;;3.10;1.90;;;11.00;99.90;;;;;;5034217;28;20029;-38
2021/08/03 04:20:21;;;;;;;1.77;1.42;;;12.20;99.90;;;;;;5034187;28;20100;-39
2021/08/03 04:22:46;;;;;;;3.22;1.50;;;13.30;99.90;;;;;;5033032;28;20140;-37
2021/08/03 04:25:12;;;;;;;4.07;1.40;;;13.30;99.90;;;;;;5034087;28;20033;-38
2021/08/03 04:27:38;;;;;;;2.67;1.15;;;13.20;99.90;;;;;;5033938;28;20547;-38
2021/08/03 04:30:07;;;;;;;4.32;1.70;;;13.10;99.90;;;;;;5033914;28;20057;-38
2021/08/03 04:32:32;;;;;;;2.05;1.77;;;13.00;99.90;;;;;;5033805;28;20064;-39
2021/08/03 04:34:58;;;;;;;2.33;1.60;;;13.00;99.90;;;;;;5033813;28;20122;-37
2021/08/03 04:37:23;;;;;;;1.80;1.70;;;13.00;99.90;;;;;;5032729;28;20370;-38
2021/08/03 04:39:49;;;;;;;2.00;1.33;;;13.10;99.90;;;;;;5033648;28;20029;-38
2021/08/03 04:42:14;;;;;;;6.22;1.63;;;13.30;99.90;;;;;;5033676;28;20080;-37
2021/08/03 04:44:40;;;;;;;3.03;1.70;;;13.40;99.90;;;;;;5033590;28;20030;-39
2021/08/03 04:47:05;;;;;;;3.10;1.73;;;13.70;99.90;;;;;;5033657;28;20029;-38
2021/08/03 04:49:31;;;;;;;2.45;1.63;;;14.10;99.90;;;;;;5033524;28;20108;-37
2021/08/03 04:51:59;;;;;;;2.85;1.70;;;14.40;99.90;;;;;;5032412;28;20076;-38
2021/08/03 04:54:25;;;;;;;2.95;1.40;;;14.40;99.90;;;;;;5033405;28;20191;-38
2021/08/03 04:56:50;;;;;;;2.40;1.75;;;14.50;99.90;;;;;;5033403;28;20029;-38
2021/08/03 04:59:16;;;;;;;4.65;1.30;;;14.50;99.90;;;;;;5033400;28;20033;-37
2021/08/03 05:01:41;;;;;;;2.63;1.55;;;14.50;99.90;;;;;;5033240;28;20029;-38
2021/08/03 05:04:07;;;;;;;1.42;1.30;;;14.60;99.90;;;;;;5033159;28;20355;-38
2021/08/03 05:06:32;;;;;;;2.33;1.35;;;14.60;99.90;;;;;;5032174;28;20057;-38
2021/08/03 05:08:58;;;;;;;2.88;1.50;;;14.60;99.90;;;;;;5033172;28;20025;-37
2021/08/03 05:11:23;;;;;;;1.52;1.15;;;14.50;99.90;;;;;;5033154;28;20030;-38
2021/08/03 05:13:49;;;;;;;4.25;1.50;;;14.50;99.90;;;;;;5033093;28;20030;-38
2021/08/03 05:16:14;;;;;;;2.75;1.73;;;14.50;99.90;;;;;;5033079;28;20346;-38
2021/08/03 05:18:40;;;;;;;1.88;1.48;;;14.40;99.90;;;;;;5032942;28;20021;-37
2021/08/03 05:21:05;;;;;;;2.75;1.70;;;14.40;99.90;;;;;;5032038;28;20388;-37
2021/08/03 05:23:31;;;;;;;2.25;1.48;;;14.40;99.90;;;;;;5032806;28;20112;-38
2021/08/03 05:25:56;;;;;;;4.00;1.27;;;14.50;99.90;;;;;;5032911;28;20037;-37
2021/08/03 05:28:21;;;;;;;3.58;1.38;;;14.60;99.90;;;;;;5032741;28;20028;-38
2021/08/03 05:30:50;;;;;;;3.15;1.27;;;14.80;99.90;;;;;;5032722;28;20412;-38
2021/08/03 05:33:15;;;;;;;3.15;1.52;;;14.90;99.90;;;;;;5032890;28;20025;-37
2021/08/03 05:35:42;;;;;;;4.35;1.98;;;15.10;99.90;;;;;;5031805;28;20030;-38
2021/08/03 05:38:08;;;;;;;1.85;1.33;;;15.30;99.90;;;;;;5032735;28;20049;-37
2021/08/03 05:40:34;;;;;;;1.73;1.38;;;15.50;99.90;;;;;;5032712;28;20026;-37
2021/08/03 05:43:00;;;;;;;3.10;1.73;;;15.70;99.90;;;;;;5048370;28;20063;-37
2021/08/03 05:45:27;;;;;;;3.05;1.58;;;15.90;99.90;;;;;;5051264;28;20472;-38
2021/08/03 05:47:52;;;;;;;1.38;1.27;;;16.10;99.90;;;;;;5051144;28;20451;-38
2021/08/03 05:50:18;;;;;;;1.85;1.30;;;16.30;99.90;;;;;;5051244;28;20064;-38
2021/08/03 05:52:43;;;;;;;4.85;1.85;;;16.50;99.90;;;;;;5046455;28;20047;-38
2021/08/03 05:55:09;;;;;;;2.80;1.50;;;16.60;99.90;;;;;;5050984;28;20380;-38
2021/08/03 05:57:35;;;;;;;3.22;1.20;;;16.60;99.90;;;;;;5050786;28;20028;-38
2021/08/03 06:00:00;;;;;;;2.72;1.50;;;16.60;99.90;;;;;;5050903;28;20017;-38
2021/08/03 06:02:25;;;;;;;2.58;1.42;;;16.80;99.90;;;;;;5050825;28;20040;-38
2021/08/03 06:04:52;;;;;;;2.05;1.20;;;17.00;99.90;;;;;;5050658;28;20068;-37
2021/08/03 06:07:20;;;;;;;4.20;1.48;;;17.20;99.90;;;;;;5049963;28;20023;-38
2021/08/03 06:09:49;;;;;;;2.00;1.38;;;17.30;99.90;;;;;;5032876;28;20112;-38
2021/08/03 06:12:16;;;;;;;1.70;1.20;;;17.40;99.90;;;;;;5029394;28;20388;-39
2021/08/03 06:14:44;;;;;;;2.88;1.52;;;17.30;99.90;;;;;;5029325;28;20021;-38
2021/08/03 06:17:13;;;;;;;2.75;1.23;;;17.30;99.90;;;;;;5029372;28;20469;-38
2021/08/03 06:19:47;;;;;;;1.85;1.45;;;17.20;99.90;;;;;;5029256;28;20105;-38
2021/08/03 06:22:14;;;;;;;4.63;1.45;;;17.30;99.90;;;;;;5028956;28;20036;-38
2021/08/03 06:24:42;;;;;;;3.30;1.55;;;17.40;99.90;;;;;;5030547;28;20088;-38
2021/08/03 06:27:09;;;;;;;2.42;1.25;;;17.50;99.90;;;;;;5030220;28;20383;-38
2021/08/03 06:29:38;;;;;;;1.52;1.25;;;17.70;99.90;;;;;;5030667;28;20072;-38
2021/08/03 06:32:04;;;;;;;2.33;1.70;;;17.80;99.90;;;;;;5030088;28;20583;-38
2021/08/03 06:34:32;;;;;;;1.95;1.30;;;17.90;99.90;;;;;;5031822;28;20021;-38
2021/08/03 06:36:58;;;;;;;2.60;1.35;;;18.10;99.90;;;;;;5032344;28;20026;-39
2021/08/03 06:39:23;;;;;;;3.20;1.58;;;18.20;99.90;;;;;;5034520;28;20040;-38
2021/08/03 06:41:54;;;;;;;2.20;1.45;;;18.40;99.90;;;;;;5034250;28;20051;-38
2021/08/03 06:44:34;;;;;;;3.53;1.42;;;18.50;99.90;;;;;;5034343;28;20369;-38
2021/08/03 06:47:01;;;;;;;4.30;1.55;;;18.60;99.90;;;;;;5034200;28;20025;-38
2021/08/03 06:49:31;;;;;;;2.08;1.00;;;18.70;99.90;;;;;;5034216;28;20026;-38
2021/08/03 06:51:58;;;;;;;2.42;0.95;;;18.70;99.90;;;;;;5033135;28;20112;-38
2021/08/03 06:54:28;;;;;;;1.85;0.98;;;18.70;99.90;;;;;;5033974;28;20469;-37
2021/08/03 06:57:07;;;;;;;5.30;1.27;;;18.80;99.90;;;;;;5034042;28;20026;-38
2021/08/03 06:59:36;;;;;;;2.20;1.30;;;18.90;99.90;;;;;;5034030;28;20021;-38
2021/08/03 07:02:07;;;;;;;2.90;1.35;;;19.20;99.90;;;;;;5033917;28;20061;-38
2021/08/03 07:04:57;;;;;;;1.40;1.30;;;19.50;99.90;;;;;;5033824;28;20049;-38
2021/08/03 07:07:23;;;;;;;3.75;1.67;;;19.70;99.90;;;;;;5033015;28;20069;-38
2021/08/03 07:09:49;;;;;;;2.55;1.63;;;19.80;99.90;;;;;;5035266;28;20531;-38
2021/08/03 07:12:16;;;;;;;2.40;1.60;;;19.80;99.90;;;;;;5035356;28;20041;-38
2021/08/03 07:14:42;;;;;;;4.03;1.20;;;19.70;99.90;;;;;;5032459;28;20136;-38
2021/08/03 07:17:12;;;;;;;2.83;1.50;;;19.70;99.90;;;;;;5034989;28;20033;-38
2021/08/03 07:19:39;;;;;;;2.42;1.10;;;19.50;99.90;;;;;;5035130;28;20025;-38
2021/08/03 07:22:08;;;;;;;1.48;1.20;;;19.40;99.90;;;;;;5033855;28;20022;-38
2021/08/03 07:24:34;;;;;;;1.92;1.00;;;19.30;99.90;;;;;;5034976;28;20034;-38
2021/08/03 07:27:00;;;;;;;2.60;1.20;;;19.10;99.90;;;;;;5034789;28;20087;-37
2021/08/03 07:29:26;;;;;;;2.22;1.60;;;19.10;99.90;;;;;;5034976;28;20477;-38
2021/08/03 07:31:52;;;;;;;2.67;1.40;;;19.00;99.90;;;;;;5033588;28;20396;-37
2021/08/03 07:34:18;;;;;;;4.85;1.83;;;19.00;99.90;;;;;;5034956;28;20101;-38
2021/08/03 07:36:43;;;;;;;1.70;1.17;;;18.90;99.90;;;;;;5033704;28;20017;-38
2021/08/03 07:39:09;;;;;;;3.33;1.80;;;18.80;99.90;;;;;;5034570;28;20029;-37
2021/08/03 07:41:36;;;;;;;3.88;1.90;;;18.80;99.90;;;;;;5034678;28;20131;-38
2021/08/03 07:44:03;;;;;;;2.97;1.80;;;18.80;99.90;;;;;;5034586;28;20358;-38
2021/08/03 07:46:29;;;;;;;4.65;2.20;;;18.80;99.90;;;;;;5034594;28;20531;-37
2021/08/03 07:48:56;;;;;;;3.40;1.65;;;18.90;99.90;;;;;;5040068;28;20384;-38
2021/08/03 07:51:22;;;;;;;4.18;1.70;;;19.00;99.90;;;;;;5052085;28;20090;-38
2021/08/03 07:53:48;;;;;;;3.25;1.50;;;19.10;99.90;;;;;;5053160;28;20609;-38
2021/08/03 07:56:15;;;;;;;3.28;1.50;;;19.20;99.90;;;;;;5053083;28;20021;-38
2021/08/03 07:58:41;;;;;;;7.35;1.75;;;19.50;99.90;;;;;;5053321;28;20059;-38
2021/08/03 08:01:07;;;;;;;4.55;1.77;;;20.00;99.90;;;;;;5052996;28;20052;-38
2021/08/03 08:03:34;;;;;;;1.67;1.52;;;21.10;99.90;;;;;;5052956;28;20064;-38
2021/08/03 08:06:00;;;;;;;2.90;1.45;;;21.90;99.90;;;;;;5051849;28;20025;-38
2021/08/03 08:08:26;;;;;;;2.58;1.88;;;21.80;99.90;;;;;;5049489;28;20357;-38
2021/08/03 08:10:51;;;;;;;4.82;1.92;;;21.90;99.90;;;;;;5052520;28;20147;-38
2021/08/03 08:13:17;;;;;;;5.00;1.85;;;22.80;99.90;;;;;;5052761;28;20103;-39
2021/08/03 08:15:43;;;;;;;5.25;1.80;;;24.30;99.00;;;;;;5052622;28;20356;-41
2021/08/03 08:18:10;;;;;;;3.40;1.55;;;26.20;94.20;;;;;;5052591;28;20021;-38
2021/08/03 08:20:40;;;;;;;2.08;1.30;;;26.40;92.50;;;;;;5052484;28;20025;-39
2021/08/03 08:23:06;;;;;;;3.95;1.40;;;26.60;87.50;;;;;;5052520;28;20025;-38
2021/08/03 08:25:32;;;;;;;1.98;1.23;;;26.90;90.00;;;;;;5050447;28;20028;-42
2021/08/03 08:27:58;;;;;;;3.17;1.83;;;28.40;78.10;;;;;;5052401;28;20021;-42
2021/08/03 08:30:24;;;;;;;2.30;1.50;;;29.80;68.60;;;;;;5051664;28;20029;-41
2021/08/03 08:32:49;;;;;;;3.35;1.58;;;31.30;66.10;;;;;;5052371;28;20056;-41
2021/08/03 08:35:15;;;;;;;3.45;1.30;;;32.60;58.00;;;;;;5052199;28;20367;-44
2021/08/03 08:37:41;;;;;;;1.95;1.20;;;33.20;55.30;;;;;;5051569;28;20063;-41
2021/08/03 08:40:08;;;;;;;1.00;0.85;;;34.10;53.00;;;;;;5052231;28;20025;-42
2021/08/03 08:42:34;;;;;;;1.60;0.93;;;34.50;48.90;;;;;;5052404;28;20025;-41
2021/08/03 08:45:02;;;;;;;1.75;0.88;;;34.60;48.60;;;;;;5051906;28;20560;-42
2021/08/03 08:47:28;;;;;;;2.30;0.82;;;35.10;45.80;;;;;;5032231;28;20030;-43
2021/08/03 08:49:55;;;;;;;1.77;0.68;;;35.40;44.10;;;;;;5032155;28;20029;-42
2021/08/03 08:52:21;;;;;;;1.58;0.77;;;35.40;42.20;;;;;;5031050;28;20032;-41
2021/08/03 08:54:46;;;;;;;1.40;0.82;;;34.90;41.80;;;;;;5032152;28;20034;-42
2021/08/03 08:57:12;;;;;;;1.08;0.70;;;33.80;42.10;;;;;;5031668;28;20449;-42
2021/08/03 08:59:38;;;;;;;1.20;0.98;;;32.50;42.20;;;;;;5032326;28;20049;-41
2021/08/03 09:02:04;;;;;;;3.28;0.90;;;31.30;43.10;;;;;;5031969;28;20026;-42
2021/08/03 09:04:30;;;;;;;2.15;0.80;;;30.50;42.90;;;;;;5031760;28;20141;-43
2021/08/03 09:07:06;;;;;;;1.88;0.50;;;29.70;44.00;;;;;;5031096;28;20033;-41
2021/08/03 09:09:39;;;;;;;2.30;0.90;;;29.10;39.80;;;;;;5032131;28;20105;-41
2021/08/03 09:12:05;;;;;;;1.90;1.02;;;28.40;42.90;;;;;;5031723;28;20028;-42
2021/08/03 09:14:34;;;;;;;1.80;0.77;;;27.90;45.70;;;;;;5052005;28;20017;-41
2021/08/03 09:17:00;;;;;;;2.40;1.02;;;27.40;46.10;;;;;;5051600;28;20028;-43
2021/08/03 09:19:30;;;;;;;2.38;1.05;;;27.00;46.80;;;;;;5051588;28;20025;-41
2021/08/03 09:22:10;;;;;;;1.52;0.90;;;26.70;47.10;;;;;;5050541;28;20047;-42
2021/08/03 09:24:36;;;;;;;1.48;0.70;;;27.50;44.50;;;;;;5051694;28;20021;-41
2021/08/03 09:27:01;;;;;;;2.50;1.10;;;27.60;45.50;;;;;;5050667;28;20036;-46
2021/08/03 09:29:27;;;;;;;1.20;0.68;;;27.50;45.80;;;;;;5050086;28;20044;-41
2021/08/03 09:31:57;;;;;;;2.13;1.00;;;27.30;46.00;;;;;;5051408;28;20055;-48
2021/08/03 09:34:22;;;;;;;1.85;0.95;;;27.00;46.60;;;;;;5051476;28;20043;-41
2021/08/03 09:36:55;;;;;;;2.03;1.00;;;26.60;47.00;;;;;;5050603;28;20017;-41
2021/08/03 09:39:46;;;;;;;1.27;0.95;;;26.60;47.30;;;;;;5051371;28;20009;-41
2021/08/03 09:42:24;;;;;;;2.10;1.05;;;27.20;46.50;;;;;;5051049;28;20116;-43
2021/08/03 09:44:58;;;;;;;1.10;0.80;;;28.20;44.30;;;;;;5051413;28;20112;-42
2021/08/03 09:47:26;;;;;;;2.13;1.00;;;28.60;43.20;;;;;;5051369;28;20464;-42
2021/08/03 09:49:55;;;;;;;2.40;0.98;;;29.60;41.40;;;;;;5051275;28;20021;-41
2021/08/03 09:52:26;;;;;;;1.40;0.80;;;30.50;39.60;;;;;;5050021;28;20472;-41
2021/08/03 09:55:13;;;;;;;1.85;0.85;;;31.40;38.30;;;;;;5050457;28;20380;-41
2021/08/03 09:57:40;;;;;;;2.30;0.73;;;32.00;32.50;;;;;;5051261;28;20020;-42
2021/08/03 10:00:35;;;;;;;2.00;0.93;;;31.90;34.60;;;;;;5051140;28;20025;-43
2021/08/03 10:03:01;;;;;;;2.15;0.80;;;32.40;31.70;;;;;;5050878;28;20059;-43
2021/08/03 10:05:29;;;;;;;2.63;0.80;;;32.60;33.20;;;;;;5050950;28;20033;-42
2021/08/03 10:07:55;;;;;;;1.27;0.73;;;32.00;33.00;;;;;;5050734;28;20475;-42
2021/08/03 10:10:21;;;;;;;1.00;0.52;;;30.90;33.60;;;;;;5053755;28;20427;-41
2021/08/03 10:12:47;;;;;;;2.35;0.90;;;30.00;33.80;;;;;;5055143;28;20029;-42
2021/08/03 10:15:13;;;;;;;2.33;0.80;;;29.20;35.20;;;;;;5054946;28;20032;-43
2021/08/03 10:17:39;;;;;;;1.85;0.80;;;28.80;36.40;;;;;;5055126;28;20028;-41
2021/08/03 10:20:07;;;;;;;2.30;0.95;;;28.50;36.80;;;;;;5054984;28;20107;-42
2021/08/03 10:22:38;;;;;;;1.15;0.90;;;28.40;36.60;;;;;;5054101;28;20032;-41
2021/08/03 10:25:12;;;;;;;0.63;0.50;;;28.50;36.20;;;;;;5054835;28;20120;-40
2021/08/03 10:27:43;;;;;;;0.98;0.60;;;28.40;36.60;;;;;;5054821;28;20025;-41
2021/08/03 10:30:29;;;;;;;1.40;0.73;;;28.40;36.60;;;;;;5054064;28;20063;-44
2021/08/03 10:33:00;;;;;;;2.45;0.80;;;28.10;36.70;;;;;;5054645;28;20033;-43
2021/08/03 10:35:39;;;;;;;2.15;0.82;;;28.00;37.40;;;;;;5054744;28;20055;-41
2021/08/03 10:38:13;;;;;;;4.40;1.23;;;28.00;36.50;;;;;;5054610;28;20027;-41
2021/08/03 10:40:45;;;;;;;2.35;0.80;;;27.60;38.00;;;;;;5054636;28;20028;-41
2021/08/03 10:43:18;;;;;;;2.20;0.90;;;27.20;39.30;;;;;;5054610;28;20051;-41
2021/08/03 10:45:44;;;;;;;3.47;0.88;;;26.70;41.10;;;;;;5054520;28;20419;-44
2021/08/03 10:48:10;;;;;;;2.33;0.90;;;26.30;41.90;;;;;;5054088;28;20029;-42
2021/08/03 10:50:38;;;;;;;1.60;0.93;;;25.90;43.00;;;;;;5053163;28;20036;-41
2021/08/03 10:53:04;;;;;;;1.75;0.80;;;25.50;44.50;;;;;;5054256;28;20047;-41
2021/08/03 10:55:34;;;;;;;1.42;1.00;;;25.20;45.50;;;;;;5054236;28;20055;-41
2021/08/03 10:58:09;;;;;;;2.28;0.90;;;24.90;47.50;;;;;;5054271;28;20021;-43
2021/08/03 11:00:45;;;;;;;1.63;0.90;;;24.80;48.80;;;;;;5054248;28;20036;-41
2021/08/03 11:03:33;;;;;;;2.17;0.70;;;24.70;48.50;;;;;;5053550;28;20059;-42
2021/08/03 11:06:10;;;;;;;1.92;1.10;;;24.80;50.00;;;;;;5052134;28;20028;-40
2021/08/03 11:08:38;;;;;;;1.67;1.08;;;24.90;48.00;;;;;;5052923;28;20024;-43
2021/08/03 11:11:36;;;;;;;2.50;0.98;;;25.00;47.10;;;;;;5052771;28;20018;-43
2021/08/03 11:14:06;;;;;;;1.02;0.93;;;25.20;46.30;;;;;;5040418;28;20033;-41
2021/08/03 11:16:34;;;;;;;2.50;1.25;;;25.20;45.80;;;;;;5052440;28;20021;-42
2021/08/03 11:19:06;;;;;;;2.20;1.20;;;25.10;45.40;;;;;;5052930;28;20071;-42
2021/08/03 11:21:50;;;;;;;2.63;0.77;;;25.10;45.60;;;;;;5051265;28;20181;-43
2021/08/03 11:24:32;;;;;;;1.45;0.90;;;25.10;45.70;;;;;;5051138;28;20059;-42
2021/08/03 11:26:59;;;;;;;0.95;0.88;;;25.10;44.10;;;;;;5051379;28;20152;-41
2021/08/03 11:29:27;;;;;;;1.60;0.73;;;25.00;44.50;;;;;;5052600;28;20033;-42
2021/08/03 11:31:55;;;;;;;1.45;0.90;;;24.80;45.00;;;;;;5052618;28;20036;-44
2021/08/03 11:34:22;;;;;;;1.80;0.88;;;24.80;45.60;;;;;;5052496;28;20032;-45
2021/08/03 11:36:57;;;;;;;2.70;1.25;;;24.80;46.10;;;;;;5051504;28;20444;-41
2021/08/03 11:39:26;;;;;;;2.15;1.20;;;25.00;46.40;;;;;;5052401;28;20040;-41
2021/08/03 11:41:52;;;;;;;2.05;1.08;;;25.20;45.60;;;;;;5052280;28;20044;-41
2021/08/03 11:44:19;;;;;;;2.13;1.00;;;25.30;44.90;;;;;;5052266;28;20025;-40
2021/08/03 11:47:03;;;;;;;0.60;0.60;;;25.40;44.60;;;;;;5052371;28;20025;-43
2021/08/03 11:49:35;;;;;;;1.52;0.82;;;25.40;44.20;;;;;;5052223;28;20035;-42
2021/08/03 11:52:09;;;;;;;0.90;0.60;;;25.40;44.10;;;;;;5051337;28;20392;-41
2021/08/03 11:54:36;;;;;;;1.67;0.90;;;25.30;44.00;;;;;;5052136;28;20442;-40
2021/08/03 11:57:19;;;;;;;1.85;1.00;;;25.20;44.00;;;;;;5052152;28;20361;-41
2021/08/03 11:59:45;;;;;;;1.73;0.82;;;25.20;43.80;;;;;;5052224;28;20017;-44
2021/08/03 12:02:10;;;;;;;1.00;0.90;;;25.10;43.60;;;;;;5051922;28;20095;-43
2021/08/03 12:04:36;;;;;;;0.98;0.82;;;25.10;44.00;;;;;;5016537;28;1041849;-43
2021/08/03 12:07:02;;;;;;;1.05;0.82;;;25.00;43.90;;;;;;5052192;28;20556;-40
2021/08/03 12:09:27;;;;;;;2.55;0.95;;;25.00;44.40;;;;;;5052918;28;20104;-41
2021/08/03 12:12:00;;;;;;;2.33;0.95;;;25.00;44.60;;;;;;5053363;28;20063;-43
2021/08/03 12:14:35;;;;;;;1.38;0.88;;;25.10;44.10;;;;;;5054067;28;20100;-42
2021/08/03 12:17:01;;;;;;;2.95;1.25;;;25.10;43.80;;;;;;5054226;28;20029;-45
2021/08/03 12:19:35;;;;;;;1.65;1.13;;;24.90;43.30;;;;;;5054083;28;20384;-40
2021/08/03 12:22:02;;;;;;;1.25;1.05;;;24.90;44.20;;;;;;5053004;28;20024;-40
2021/08/03 12:24:28;;;;;;;1.23;0.95;;;24.80;44.80;;;;;;5053951;28;20468;-41
2021/08/03 12:27:14;;;;;;;1.48;0.70;;;24.70;45.00;;;;;;5053893;28;20365;-40
2021/08/03 12:29:40;;;;;;;0.70;0.70;;;24.70;45.50;;;;;;5053686;28;20079;-43
2021/08/03 12:32:06;;;;;;;3.13;1.10;;;24.80;44.70;;;;;;5052998;28;20033;-40
2021/08/03 12:34:37;;;;;;;1.33;0.85;;;25.10;43.90;;;;;;5053804;28;20025;-42
2021/08/03 12:37:05;;;;;;;1.60;0.95;;;25.20;42.90;;;;;;5052851;28;20028;-40
2021/08/03 12:39:37;;;;;;;1.48;0.85;;;25.20;42.60;;;;;;5053560;28;20104;-40
2021/08/03 12:42:20;;;;;;;2.20;1.02;;;25.10;42.30;;;;;;5053702;28;20033;-43
2021/08/03 12:44:52;;;;;;;1.55;0.80;;;25.00;42.30;;;;;;5053709;28;20032;-43
2021/08/03 12:47:24;;;;;;;1.23;0.75;;;24.90;42.40;;;;;;5053485;28;20538;-43
2021/08/03 12:49:51;;;;;;;0.80;0.80;;;24.80;42.60;;;;;;5053455;28;20384;-40
2021/08/03 12:52:24;;;;;;;1.98;0.77;;;24.80;43.60;;;;;;5052392;28;20380;-41
2021/08/03 12:55:11;;;;;;;3.80;1.00;;;24.70;43.20;;;;;;5053483;28;20021;-40
2021/08/03 12:57:48;;;;;;;0.82;0.82;;;24.70;42.10;;;;;;5053364;28;20430;-43
2021/08/03 13:00:31;;;;;;;1.35;0.82;;;24.70;42.70;;;;;;5053269;28;20052;-40